createdAt,value
2022-08-10T00:01:01.970Z,101558.22
2022-08-10T00:03:36.266Z,101556.05
2022-08-10T00:06:05.141Z,101555.34
2022-08-10T00:08:37.340Z,101555.27
2022-08-10T00:11:15.389Z,101555.05
2022-08-10T00:13:46.311Z,101554.89
2022-08-10T00:16:19.116Z,101554.13
2022-08-10T00:18:49.980Z,101554.52
2022-08-10T00:21:19.110Z,101552.15
2022-08-10T00:23:50.653Z,101551.48
2022-08-10T00:26:19.508Z,101554.04
2022-08-10T00:28:53.305Z,101550.92
2022-08-10T00:31:24.105Z,101555.56
2022-08-10T00:33:53.048Z,101548.92
2022-08-10T00:36:22.107Z,101548.20
2022-08-10T00:38:51.079Z,101543.73
2022-08-10T00:41:21.360Z,101546.16
2022-08-10T00:43:59.799Z,101547.27
2022-08-10T00:46:28.975Z,101549.14
2022-08-10T00:49:00.765Z,101546.85
2022-08-10T00:51:43.212Z,101549.15
2022-08-10T00:54:24.181Z,101546.89
2022-08-10T00:57:16.514Z,101549.08
2022-08-10T00:59:58.874Z,101546.59
2022-08-10T01:02:35.155Z,101541.97
2022-08-10T01:05:10.407Z,101536.70
2022-08-10T01:07:56.288Z,101535.50
2022-08-10T01:10:34.058Z,101534.63
2022-08-10T01:13:35.045Z,101537.80
2022-08-10T01:16:25.993Z,101540.04
2022-08-10T01:19:55.099Z,101540.15
2022-08-10T01:22:48.802Z,101532.91
2022-08-10T01:26:10.591Z,101529.98
2022-08-10T01:29:00.077Z,101534.01
2022-08-10T01:31:38.396Z,101534.02
2022-08-10T01:34:18.690Z,101538.21
2022-08-10T01:36:55.838Z,101540.56
2022-08-10T01:39:38.204Z,101536.48
2022-08-10T01:42:11.085Z,101536.95
2022-08-10T01:44:46.266Z,101536.33
2022-08-10T01:47:37.832Z,101538.95
2022-08-10T01:50:59.118Z,101537.36
2022-08-10T01:53:41.533Z,101537.31
2022-08-10T01:56:16.573Z,101540.23
2022-08-10T01:59:08.057Z,101540.91
2022-08-10T02:01:50.198Z,101541.73
2022-08-10T02:04:26.669Z,101543.66
2022-08-10T02:07:03.491Z,101546.19
2022-08-10T02:09:43.725Z,101544.94
2022-08-10T02:12:19.559Z,101546.56
2022-08-10T02:14:57.494Z,101546.63
2022-08-10T02:17:57.849Z,101548.65
2022-08-10T02:20:43.949Z,101549.21
2022-08-10T02:23:39.953Z,101548.45
2022-08-10T02:26:14.737Z,101549.75
2022-08-10T02:28:47.569Z,101548.81
2022-08-10T02:31:25.652Z,101549.75
2022-08-10T02:33:59.345Z,101548.98
2022-08-10T02:36:35.582Z,101549.45
2022-08-10T02:39:10.179Z,101552.78
2022-08-10T02:45:01.397Z,101556.17
2022-08-10T02:45:31.001Z,101557.20
2022-08-10T02:48:07.589Z,101552.75
2022-08-10T02:50:40.784Z,101554.84
2022-08-10T02:53:54.956Z,101551.29
2022-08-10T02:56:46.612Z,101550.34
2022-08-10T02:59:23.826Z,101551.09
2022-08-10T03:01:58.521Z,101549.25
2022-08-10T03:04:55.278Z,101550.93
2022-08-10T03:07:43.819Z,101553.49
2022-08-10T03:10:23.694Z,101549.06
2022-08-10T03:13:05.464Z,101548.64
2022-08-10T03:15:41.282Z,101548.13
2022-08-10T03:18:12.293Z,101550.85
2022-08-10T03:20:45.001Z,101556.77
2022-08-10T03:23:18.699Z,101562.35
2022-08-10T03:25:54.648Z,101563.64
2022-08-10T03:28:29.173Z,101562.80
2022-08-10T03:31:02.794Z,101563.17
2022-08-10T03:33:37.438Z,101561.60
2022-08-10T03:36:43.211Z,101563.90
2022-08-10T03:39:02.002Z,101564.25
2022-08-10T03:41:53.337Z,101565.52
2022-08-10T03:44:29.940Z,101564.35
2022-08-10T03:47:01.769Z,101564.85
2022-08-10T03:49:33.853Z,101566.62
2022-08-10T03:52:03.500Z,101570.70
2022-08-10T03:54:39.749Z,101574.27
2022-08-10T03:57:13.706Z,101574.94
2022-08-10T03:59:42.824Z,101575.17
2022-08-10T04:02:42.192Z,101578.45
2022-08-10T04:05:01.215Z,101577.79
2022-08-10T04:07:32.384Z,101577.89
2022-08-10T04:10:01.579Z,101578.64
2022-08-10T04:12:32.613Z,101580.07
2022-08-10T04:15:02.011Z,101579.52
2022-08-10T04:18:02.830Z,101579.48
2022-08-10T04:20:37.237Z,101578.93
2022-08-10T04:23:14.212Z,101579.29
2022-08-10T04:25:43.236Z,101578.02
2022-08-10T04:28:14.851Z,101581.59
2022-08-10T04:30:55.582Z,101583.09
2022-08-10T04:33:32.802Z,101580.02
2022-08-10T04:36:05.673Z,101580.12
2022-08-10T04:38:36.994Z,101579.50
2022-08-10T04:41:13.116Z,101578.05
2022-08-10T04:43:45.312Z,101576.77
2022-08-10T04:46:55.347Z,101579.82
2022-08-10T04:49:40.332Z,101578.98
2022-08-10T04:51:59.586Z,101582.46
2022-08-10T04:54:29.925Z,101583.23
2022-08-10T04:56:59.099Z,101582.67
2022-08-10T04:59:28.136Z,101585.02
2022-08-10T05:02:28.835Z,101590.92
2022-08-10T05:04:46.290Z,101592.42
2022-08-10T05:07:18.404Z,101593.59
2022-08-10T05:10:01.453Z,101604.48
2022-08-10T05:12:39.661Z,101606.70
2022-08-10T05:15:13.679Z,101607.46
2022-08-10T05:18:09.612Z,101610.66
2022-08-10T05:20:35.779Z,101610.91
2022-08-10T05:23:07.310Z,101610.70
2022-08-10T05:25:38.205Z,101613.07
2022-08-10T05:28:07.429Z,101613.38
2022-08-10T05:30:36.437Z,101611.19
2022-08-10T05:33:08.789Z,101612.66
2022-08-10T05:35:55.187Z,101611.81
2022-08-10T05:38:31.817Z,101605.11
2022-08-10T05:41:01.242Z,101605.09
2022-08-10T05:43:30.435Z,101606.00
2022-08-10T05:46:17.246Z,101605.48
2022-08-10T05:48:58.084Z,101604.38
2022-08-10T05:51:33.245Z,101606.39
2022-08-10T05:54:06.759Z,101606.83
2022-08-10T05:56:56.380Z,101609.02
2022-08-10T06:00:33.033Z,101612.66
2022-08-10T06:02:45.422Z,101614.96
2022-08-10T06:05:26.498Z,101613.14
2022-08-10T06:07:56.215Z,101620.77
2022-08-10T06:10:31.272Z,101619.83
2022-08-10T06:13:30.221Z,101621.88
2022-08-10T06:16:07.479Z,101621.30
2022-08-10T06:18:37.644Z,101623.77
2022-08-10T06:21:09.774Z,101626.23
2022-08-10T06:23:41.409Z,101627.88
2022-08-10T06:26:14.685Z,101629.33
2022-08-10T06:29:02.332Z,101628.55
2022-08-10T06:31:49.037Z,101629.52
2022-08-10T06:34:47.886Z,101630.93
2022-08-10T06:37:28.980Z,101630.63
2022-08-10T06:39:59.348Z,101631.64
2022-08-10T06:42:41.390Z,101632.52
2022-08-10T06:45:27.816Z,101638.45
2022-08-10T06:48:05.372Z,101639.28
2022-08-10T06:50:58.726Z,101642.85
2022-08-10T06:53:53.147Z,101639.34
2022-08-10T06:56:46.832Z,101637.19
2022-08-10T06:59:40.776Z,101635.36
2022-08-10T07:02:25.857Z,101638.53
2022-08-10T07:05:05.328Z,101638.50
2022-08-10T07:07:41.196Z,101635.62
2022-08-10T07:10:11.909Z,101630.94
2022-08-10T07:12:44.446Z,101630.98
2022-08-10T07:15:15.314Z,101633.35
2022-08-10T07:17:47.986Z,101631.08
2022-08-10T07:20:22.391Z,101628.98
2022-08-10T07:23:08.154Z,101628.05
2022-08-10T07:25:47.895Z,101632.98
2022-08-10T07:28:18.182Z,101631.86
2022-08-10T07:30:51.744Z,101629.87
2022-08-10T07:33:24.973Z,101630.32
2022-08-10T07:36:06.684Z,101630.70
2022-08-10T07:38:37.757Z,101633.80
2022-08-10T07:41:23.423Z,101636.51
2022-08-10T07:44:04.451Z,101634.18
2022-08-10T07:46:43.820Z,101635.52
2022-08-10T07:49:26.119Z,101630.83
2022-08-10T07:52:00.887Z,101629.69
2022-08-10T07:54:47.545Z,101630.05
2022-08-10T07:57:40.023Z,101628.44
2022-08-10T08:00:31.682Z,101627.22
2022-08-10T08:03:06.007Z,101625.21
2022-08-10T08:06:03.350Z,101630.06
2022-08-10T08:08:48.650Z,101627.11
2022-08-10T08:11:27.085Z,101630.48
2022-08-10T08:14:02.098Z,101630.95
2022-08-10T08:16:33.411Z,101628.86
2022-08-10T08:19:38.047Z,101627.84
2022-08-10T08:24:11.224Z,101627.33
2022-08-10T08:25:14.372Z,101626.91
2022-08-10T08:27:50.969Z,101624.64
2022-08-10T08:30:35.487Z,101624.02
2022-08-10T08:33:19.797Z,101621.39
2022-08-10T08:36:06.913Z,101622.63
2022-08-10T08:38:42.460Z,101615.39
2022-08-10T08:42:20.203Z,101611.80
2022-08-10T08:45:29.821Z,101606.84
2022-08-10T08:48:06.034Z,101610.15
2022-08-10T08:50:57.957Z,101609.39
2022-08-10T08:54:04.396Z,101610.53
2022-08-10T08:57:50.378Z,101606.61
2022-08-10T09:00:51.146Z,101611.10
2022-08-10T09:03:29.243Z,101604.50
2022-08-10T09:06:34.696Z,101608.02
2022-08-10T09:09:22.421Z,101613.20
2022-08-10T09:12:38.917Z,101605.16
2022-08-10T09:15:08.287Z,101602.64
2022-08-10T09:18:06.927Z,101604.19
2022-08-10T09:21:09.241Z,101606.58
2022-08-10T09:24:20.166Z,101603.86
2022-08-10T09:32:56.211Z,101601.58
2022-08-10T09:40:12.214Z,101600.17
2022-08-10T09:42:43.377Z,101598.48
2022-08-10T09:45:28.612Z,101597.84
2022-08-10T09:48:20.775Z,101597.17
2022-08-10T09:51:44.288Z,101592.87
2022-08-10T09:54:38.028Z,101597.46
2022-08-10T09:57:44.906Z,101595.21
2022-08-10T10:00:23.702Z,101589.05
2022-08-10T10:03:36.057Z,101585.86
2022-08-10T10:07:04.279Z,101583.50
2022-08-10T10:10:20.695Z,101574.09
2022-08-10T10:13:04.582Z,101578.77
2022-08-10T10:16:11.135Z,101573.70
2022-08-10T10:19:24.945Z,101575.23
2022-08-10T10:21:59.876Z,101575.55
2022-08-10T10:25:20.924Z,101569.81
2022-08-10T10:29:11.389Z,101565.59
2022-08-10T10:31:34.248Z,101564.60
2022-08-10T10:34:25.705Z,101562.41
2022-08-10T10:37:01.284Z,101562.48
2022-08-10T10:39:36.984Z,101555.89
2022-08-10T10:42:45.166Z,101552.35
2022-08-10T10:45:53.444Z,101550.05
2022-08-10T10:49:24.387Z,101543.38
2022-08-10T10:52:20.452Z,101539.97
2022-08-10T10:55:16.336Z,101535.64
2022-08-10T10:58:42.902Z,101532.87
2022-08-10T11:01:21.631Z,101534.71
2022-08-10T11:04:27.511Z,101532.67
2022-08-10T11:07:23.732Z,101531.05
2022-08-10T11:10:31.479Z,101530.49
2022-08-10T11:14:25.225Z,101532.21
2022-08-10T11:16:47.486Z,101531.39
2022-08-10T11:19:21.824Z,101529.75
2022-08-10T11:22:23.229Z,101527.65
2022-08-10T11:25:27.739Z,101525.20
2022-08-10T11:28:34.131Z,101523.14
2022-08-10T11:31:40.190Z,101519.26
2022-08-10T11:34:47.116Z,101522.09
2022-08-10T11:38:31.368Z,101526.19
2022-08-10T11:42:05.469Z,101522.73
2022-08-10T11:44:17.847Z,101523.69
2022-08-10T11:47:20.472Z,101519.14
2022-08-10T11:50:03.899Z,101516.07
2022-08-10T11:53:05.775Z,101515.48
2022-08-10T11:55:38.002Z,101516.49
2022-08-10T11:58:32.599Z,101515.77
2022-08-10T12:01:08.225Z,101513.88
2022-08-10T12:03:44.285Z,101513.46
2022-08-10T12:06:33.688Z,101511.77
2022-08-10T12:10:05.550Z,101511.43
2022-08-10T12:12:01.292Z,101512.03
2022-08-10T12:14:41.283Z,101506.36
2022-08-10T12:17:22.756Z,101506.23
2022-08-10T12:20:25.013Z,101502.84
2022-08-10T12:23:41.008Z,101492.64
2022-08-10T12:26:27.108Z,101489.83
2022-08-10T12:29:43.039Z,101488.26
2022-08-10T12:32:27.429Z,101483.23
2022-08-10T12:35:26.613Z,101479.52
2022-08-10T12:38:29.859Z,101478.19
2022-08-10T12:41:10.034Z,101477.77
2022-08-10T12:44:22.769Z,101475.80
2022-08-10T12:47:34.723Z,101471.92
2022-08-10T12:50:39.416Z,101467.09
2022-08-10T12:53:31.448Z,101466.55
2022-08-10T12:56:02.474Z,101460.94
2022-08-10T12:58:57.509Z,101455.77
2022-08-10T13:02:09.684Z,101453.42
2022-08-10T13:04:30.582Z,101448.23
2022-08-10T13:07:02.313Z,101445.58
2022-08-10T13:09:33.349Z,101442.88
2022-08-10T13:12:35.231Z,101449.74
2022-08-10T13:15:50.078Z,101447.26
2022-08-10T13:18:46.164Z,101447.27
2022-08-10T13:21:20.617Z,101439.89
2022-08-10T13:24:11.328Z,101432.17
2022-08-10T13:27:25.626Z,101432.02
2022-08-10T13:30:03.893Z,101427.36
2022-08-10T13:32:36.799Z,101429.97
2022-08-10T13:35:12.463Z,101431.44
2022-08-10T13:37:46.907Z,101431.65
2022-08-10T13:40:20.638Z,101428.21
2022-08-10T13:42:52.162Z,101426.52
2022-08-10T13:45:25.139Z,101430.44
2022-08-10T13:48:18.901Z,101427.61
2022-08-10T13:50:52.291Z,101425.48
2022-08-10T13:53:22.499Z,101421.55
2022-08-10T13:55:57.929Z,101419.61
2022-08-10T13:58:35.579Z,101416.40
2022-08-10T14:01:15.505Z,101411.60
2022-08-10T14:03:47.443Z,101409.65
2022-08-10T14:06:18.655Z,101406.02
2022-08-10T14:08:52.093Z,101407.34
2022-08-10T14:11:23.185Z,101403.20
2022-08-10T14:14:00.736Z,101398.44
2022-08-10T14:16:30.751Z,101397.83
2022-08-10T14:19:12.944Z,101395.55
2022-08-10T14:21:43.384Z,101390.46
2022-08-10T14:24:31.678Z,101387.73
2022-08-10T14:27:10.738Z,101386.84
2022-08-10T14:29:47.094Z,101387.63
2022-08-10T14:32:21.905Z,101387.42
2022-08-10T14:36:16.915Z,101384.19
2022-08-10T14:37:54.896Z,101384.36
2022-08-10T14:40:28.800Z,101386.21
2022-08-10T14:43:06.747Z,101387.71
2022-08-10T14:45:39.219Z,101387.48
2022-08-10T14:48:39.256Z,101388.48
2022-08-10T14:51:21.123Z,101383.12
2022-08-10T14:53:58.645Z,101381.70
2022-08-10T14:56:32.875Z,101378.04
2022-08-10T14:59:07.751Z,101375.94
2022-08-10T15:02:00.109Z,101372.58
2022-08-10T15:04:37.366Z,101375.16
2022-08-10T15:07:17.818Z,101373.67
2022-08-10T15:10:00.387Z,101371.11
2022-08-10T15:12:39.080Z,101363.62
2022-08-10T15:15:16.508Z,101359.82
2022-08-10T15:17:53.153Z,101360.14
2022-08-10T15:20:25.738Z,101362.41
2022-08-10T15:23:08.269Z,101362.61
2022-08-10T15:26:11.343Z,101361.73
2022-08-10T15:29:23.608Z,101363.17
2022-08-10T15:32:00.193Z,101359.86
2022-08-10T15:34:49.021Z,101361.54
2022-08-10T15:37:47.165Z,101357.61
2022-08-10T15:40:25.615Z,101358.25
2022-08-10T15:43:24.467Z,101354.30
2022-08-10T15:46:18.109Z,101355.53
2022-08-10T15:49:45.871Z,101357.88
2022-08-10T15:52:39.815Z,101353.21
2022-08-10T15:55:42.527Z,101353.62
2022-08-10T15:58:39.329Z,101354.41
2022-08-10T16:02:14.959Z,101354.93
2022-08-10T16:04:19.628Z,101353.96
2022-08-10T16:07:12.498Z,101355.95
2022-08-10T16:10:24.092Z,101357.13
2022-08-10T16:12:59.601Z,101349.81
2022-08-10T16:15:32.139Z,101349.96
2022-08-10T16:18:09.611Z,101347.80
2022-08-10T16:20:55.106Z,101347.15
2022-08-10T16:23:29.977Z,101342.50
2022-08-10T16:26:14.508Z,101339.05
2022-08-10T16:28:56.316Z,101340.07
2022-08-10T16:31:30.946Z,101338.94
2022-08-10T16:34:13.529Z,101338.98
2022-08-10T16:36:50.169Z,101339.15
2022-08-10T16:40:06.715Z,101339.31
2022-08-10T16:42:44.987Z,101339.48
2022-08-10T16:45:22.334Z,101336.54
2022-08-10T16:47:56.135Z,101334.89
2022-08-10T16:50:31.029Z,101337.42
2022-08-10T16:53:02.658Z,101334.44
2022-08-10T16:55:47.372Z,101336.65
2022-08-10T16:58:31.676Z,101330.17
2022-08-10T17:01:10.699Z,101328.33
2022-08-10T17:04:06.325Z,101330.27
2022-08-10T17:06:52.573Z,101330.27
2022-08-10T17:09:35.524Z,101330.71
2022-08-10T17:12:13.439Z,101335.42
2022-08-10T17:14:44.376Z,101334.60
2022-08-10T17:17:26.304Z,101336.57
2022-08-10T17:20:30.220Z,101331.90
2022-08-10T17:22:57.484Z,101332.84
2022-08-10T17:25:48.494Z,101330.49
2022-08-10T17:28:34.736Z,101334.02
2022-08-10T17:31:23.926Z,101336.52
2022-08-10T17:34:17.754Z,101336.75
2022-08-10T17:36:53.921Z,101337.80
2022-08-10T17:39:41.307Z,101339.29
2022-08-10T17:42:12.339Z,101339.91
2022-08-10T17:44:43.905Z,101344.27
2022-08-10T17:47:13.753Z,101341.48
2022-08-10T17:49:45.115Z,101342.75
2022-08-10T17:52:20.187Z,101347.30
2022-08-10T17:54:56.926Z,101349.20
2022-08-10T17:57:28.377Z,101351.38
2022-08-10T18:00:03.308Z,101349.20
2022-08-10T18:02:39.544Z,101345.84
2022-08-10T18:05:13.450Z,101348.73
2022-08-10T18:07:51.734Z,101350.93
2022-08-10T18:10:22.514Z,101350.32
2022-08-10T18:12:56.625Z,101353.17
2022-08-10T18:15:29.278Z,101353.94
2022-08-10T18:18:03.578Z,101353.42
2022-08-10T18:20:39.121Z,101355.03
2022-08-10T18:23:10.539Z,101355.77
2022-08-10T18:25:46.999Z,101356.30
2022-08-10T18:28:20.113Z,101352.89
2022-08-10T18:30:56.073Z,101359.29
2022-08-10T18:33:42.454Z,101358.09
2022-08-10T18:36:13.282Z,101359.73
2022-08-10T18:38:50.217Z,101364.12
2022-08-10T18:41:32.044Z,101367.96
2022-08-10T18:44:50.699Z,101368.06
2022-08-10T18:47:40.882Z,101369.52
2022-08-10T18:50:44.132Z,101370.83
2022-08-10T18:53:22.827Z,101373.09
2022-08-10T18:56:09.059Z,101371.92
2022-08-10T18:59:07.584Z,101368.51
2022-08-10T19:02:34.922Z,101367.89
2022-08-10T19:05:30.191Z,101363.95
2022-08-10T19:08:29.904Z,101365.89
2022-08-10T19:11:19.566Z,101364.55
2022-08-10T19:14:13.263Z,101363.80
2022-08-10T19:17:06.138Z,101363.73
2022-08-10T19:20:19.184Z,101368.23
2022-08-10T19:23:28.327Z,101369.90
2022-08-10T19:26:45.796Z,101370.08
2022-08-10T19:30:09.983Z,101371.91
2022-08-10T19:33:03.083Z,101375.98
2022-08-10T19:36:02.913Z,101375.59
2022-08-10T19:39:02.165Z,101378.21
2022-08-10T19:41:44.837Z,101372.89
2022-08-10T19:44:43.326Z,101372.89
2022-08-10T19:47:44.229Z,101374.14
2022-08-10T19:50:33.473Z,101371.59
2022-08-10T19:53:37.913Z,101369.90
2022-08-10T19:56:36.221Z,101372.44
2022-08-10T19:59:08.378Z,101370.86
2022-08-10T20:01:55.156Z,101367.75
2022-08-10T20:04:36.313Z,101364.60
2022-08-10T20:07:51.553Z,101363.70
2022-08-10T20:10:50.035Z,101366.83
2022-08-10T20:13:46.934Z,101370.80
2022-08-10T20:16:34.924Z,101372.08
2022-08-10T20:19:20.947Z,101373.32
2022-08-10T20:22:10.077Z,101376.84
2022-08-10T20:25:03.100Z,101375.92
2022-08-10T20:27:59.467Z,101374.05
2022-08-10T20:30:39.932Z,101375.18
2022-08-10T20:33:41.322Z,101378.05
2022-08-10T20:36:34.376Z,101372.05
2022-08-10T20:39:28.462Z,101374.28
2022-08-10T20:42:06.728Z,101375.09
2022-08-10T20:45:04.761Z,101372.27
2022-08-10T20:47:55.256Z,101368.16
2022-08-10T20:50:56.825Z,101365.40
2022-08-10T20:53:32.157Z,101369.33
2022-08-10T20:56:55.948Z,101372.50
2022-08-10T21:00:04.660Z,101373.75
2022-08-10T21:02:55.504Z,101373.56
2022-08-10T21:05:53.912Z,101371.76
2022-08-10T21:08:51.980Z,101369.06
2022-08-10T21:11:33.333Z,101374.04
2022-08-10T21:14:54.418Z,101375.13
2022-08-10T21:17:41.955Z,101369.05
2022-08-10T21:20:55.221Z,101367.38
2022-08-10T21:23:32.984Z,101365.91
2022-08-10T21:26:44.669Z,101363.77
2022-08-10T21:30:11.223Z,101363.68
2022-08-10T21:33:12.281Z,101358.60
2022-08-10T21:36:06.307Z,101358.75
2022-08-10T21:38:51.663Z,101359.70
2022-08-10T21:42:46.947Z,101358.30
2022-08-10T21:46:05.442Z,101365.00
2022-08-10T21:49:11.627Z,101365.69
2022-08-10T21:52:40.999Z,101364.00
2022-08-10T21:56:02.983Z,101364.26
2022-08-10T21:59:08.381Z,101362.98
2022-08-10T22:02:06.129Z,101360.98
2022-08-10T22:04:53.811Z,101356.69
2022-08-10T22:07:43.072Z,101354.63
2022-08-10T22:10:33.575Z,101351.02
2022-08-10T22:13:25.968Z,101353.20
2022-08-10T22:16:18.315Z,101354.33
2022-08-10T22:19:15.161Z,101356.08
2022-08-10T22:22:28.256Z,101353.25
2022-08-10T22:25:57.199Z,101351.92
2022-08-10T22:28:48.829Z,101348.98
2022-08-10T22:35:20.379Z,101353.71
2022-08-10T22:38:23.817Z,101350.69
2022-08-10T22:41:20.876Z,101348.10
2022-08-10T22:44:11.027Z,101347.67
2022-08-10T22:47:01.508Z,101345.59
2022-08-10T22:49:30.999Z,101343.58
2022-08-10T22:52:08.516Z,101344.74
2022-08-10T22:55:27.714Z,101343.97
2022-08-10T22:58:15.508Z,101348.53
2022-08-10T23:01:12.307Z,101346.41
2022-08-10T23:03:52.770Z,101345.69
2022-08-10T23:06:28.285Z,101348.13
2022-08-10T23:09:01.941Z,101343.67
2022-08-10T23:11:38.292Z,101343.23
2022-08-10T23:14:11.100Z,101344.96
2022-08-10T23:17:08.061Z,101344.67
2022-08-10T23:20:00.286Z,101346.96
2022-08-10T23:22:41.276Z,101345.48
2022-08-10T23:25:20.671Z,101345.66
2022-08-10T23:27:58.600Z,101347.81
2022-08-10T23:30:38.193Z,101351.24
2022-08-10T23:33:16.408Z,101351.16
2022-08-10T23:36:33.925Z,101348.67
2022-08-10T23:39:26.892Z,101350.84
2022-08-10T23:41:55.363Z,101350.08
2022-08-10T23:44:30.161Z,101349.17
2022-08-10T23:47:03.135Z,101345.65
2022-08-10T23:49:37.582Z,101346.87
2022-08-10T23:52:22.695Z,101350.36
2022-08-10T23:55:02.255Z,101352.52
2022-08-10T23:57:35.519Z,101351.37
